Time;durP1;ratioP1;P1;durP2;ratioP2;P2;SDS_P1;SDS_P2;PMS_P1;PMS_P2;Temp;Humidity;BMP_temperature;BMP_pressure;BME280_temperature;BME280_humidity;BME280_pressure;Samples;Min_cycle;Max_cycle;Signal;HPM_P1;HPM_P2
2022/09/02 00:01:13;;;;;;;1.43;1.33;;;;;;;10.86;100.00;101374.09;5021761;28;20565;-70
2022/09/02 00:03:39;;;;;;;1.97;1.50;;;;;;;10.92;100.00;101371.41;5019952;28;20196;-72
2022/09/02 00:06:06;;;;;;;2.43;1.43;;;;;;;10.84;100.00;101370.66;5019912;28;20220;-72
2022/09/02 00:08:32;;;;;;;1.80;1.47;;;;;;;10.89;100.00;101375.81;5023990;28;20212;-73
2022/09/02 00:11:01;;;;;;;2.00;1.53;;;;;;;10.77;100.00;101369.91;5007540;28;20247;-72
2022/09/02 00:13:28;;;;;;;1.40;1.23;;;;;;;10.82;100.00;101376.78;5025030;28;20254;-71
2022/09/02 00:15:56;;;;;;;2.43;1.17;;;;;;;10.79;100.00;101378.56;5020975;28;20226;-73
2022/09/02 00:18:23;;;;;;;1.73;1.53;;;;;;;10.71;100.00;101375.22;5022445;28;20573;-71
2022/09/02 00:20:50;;;;;;;2.70;1.40;;;;;;;10.78;100.00;101370.75;5023882;28;20670;-72
2022/09/02 00:23:16;;;;;;;1.80;1.30;;;;;;;10.75;100.00;101373.41;5020699;28;20641;-72
2022/09/02 00:25:44;;;;;;;1.33;1.23;;;;;;;10.55;100.00;101371.09;5023107;28;20595;-71
2022/09/02 00:28:13;;;;;;;1.80;1.70;;;;;;;10.53;100.00;101370.25;5021188;28;20216;-72
2022/09/02 00:30:40;;;;;;;1.20;1.10;;;;;;;10.69;100.00;101369.13;5020990;28;20199;-70
2022/09/02 00:33:09;;;;;;;1.87;1.27;;;;;;;10.71;100.00;101366.50;5019561;28;20670;-72
2022/09/02 00:35:36;;;;;;;2.00;1.47;;;;;;;10.71;100.00;101369.13;5003582;28;20331;-71
2022/09/02 00:38:05;;;;;;;1.70;1.43;;;;;;;10.57;100.00;101358.88;5006549;28;20725;-72
2022/09/02 00:40:32;;;;;;;1.77;1.37;;;;;;;10.61;100.00;101363.19;5022614;28;20479;-72
2022/09/02 00:42:59;;;;;;;1.30;1.20;;;;;;;10.55;100.00;101358.03;5007600;28;20199;-72
2022/09/02 00:45:25;;;;;;;2.77;1.33;;;;;;;10.39;100.00;101358.25;5005795;28;20666;-72
2022/09/02 00:47:52;;;;;;;1.60;1.50;;;;;;;10.44;100.00;101357.34;5002501;28;20215;-72
2022/09/02 00:50:24;;;;;;;2.57;1.50;;;;;;;10.50;100.00;101354.63;5022450;28;20651;-71
2022/09/02 00:52:53;;;;;;;2.53;1.73;;;;;;;10.47;100.00;101358.16;5021440;28;20199;-72
2022/09/02 00:55:22;;;;;;;1.60;1.50;;;;;;;10.41;100.00;101361.72;5012369;28;20720;-73
2022/09/02 00:57:52;;;;;;;1.47;1.37;;;;;;;10.54;100.00;101357.19;5024540;28;20516;-72
2022/09/02 01:00:21;;;;;;;2.60;1.40;;;;;;;10.45;100.00;101356.44;5027419;28;20213;-73
2022/09/02 01:02:50;;;;;;;1.90;1.60;;;;;;;10.36;100.00;101354.81;5027306;28;20200;-73
2022/09/02 01:05:19;;;;;;;1.60;1.47;;;;;;;10.38;100.00;101353.94;5025553;28;20219;-72
2022/09/02 01:07:48;;;;;;;1.60;1.50;;;;;;;10.50;100.00;101352.03;5024413;28;20794;-73
2022/09/02 01:10:18;;;;;;;1.60;1.50;;;;;;;10.14;100.00;101362.91;5003156;28;20208;-71
2022/09/02 01:12:44;;;;;;;3.50;2.17;;;;;;;9.79;100.00;101360.72;5015666;28;20192;-72
2022/09/02 01:15:12;;;;;;;2.40;1.80;;;;;;;10.01;100.00;101361.34;5005364;28;20239;-71
2022/09/02 01:17:42;;;;;;;1.60;1.50;;;;;;;10.23;100.00;101365.38;5008087;28;20578;-72
2022/09/02 01:20:13;;;;;;;2.20;1.97;;;;;;;10.20;100.00;101359.34;5016331;28;20215;-72
2022/09/02 01:22:42;;;;;;;2.07;1.87;;;;;;;10.19;100.00;101362.84;5019541;28;20226;-72
2022/09/02 01:25:12;;;;;;;2.20;2.00;;;;;;;10.29;100.00;101359.25;5007287;28;20221;-72
2022/09/02 01:27:38;;;;;;;2.57;1.93;;;;;;;10.18;100.00;101356.78;5004664;28;20291;-71
2022/09/02 01:30:07;;;;;;;3.20;2.20;;;;;;;10.21;100.00;101358.47;5003725;28;20214;-72
2022/09/02 01:32:34;;;;;;;2.67;2.17;;;;;;;10.09;100.00;101362.09;5018989;28;20463;-73
2022/09/02 01:35:00;;;;;;;2.20;1.93;;;;;;;10.21;100.00;101359.34;5015368;28;20269;-71
2022/09/02 01:37:27;;;;;;;2.53;2.00;;;;;;;10.18;100.00;101361.13;5006275;28;20200;-71
2022/09/02 01:39:56;;;;;;;2.73;1.80;;;;;;;10.02;100.00;101369.13;5004633;28;20295;-72
2022/09/02 01:42:23;;;;;;;1.97;1.77;;;;;;;9.85;100.00;101364.13;5006616;28;20243;-72
2022/09/02 01:44:49;;;;;;;2.63;2.00;;;;;;;9.99;100.00;101361.38;5005910;28;20425;-72
2022/09/02 01:47:19;;;;;;;1.83;1.73;;;;;;;10.02;100.00;101369.13;5006567;28;20208;-72
2022/09/02 01:49:46;;;;;;;2.03;1.60;;;;;;;9.95;100.00;101364.88;5018941;28;20642;-71
2022/09/02 01:52:13;;;;;;;2.30;1.80;;;;;;;9.88;100.00;101360.59;5008231;28;20211;-72
2022/09/02 01:54:40;;;;;;;1.50;1.40;;;;;;;9.82;100.00;101358.09;5018578;28;20592;-70
2022/09/02 01:57:08;;;;;;;2.53;1.80;;;;;;;9.83;100.00;101359.78;5005139;28;20195;-72
2022/09/02 01:59:35;;;;;;;1.70;1.57;;;;;;;9.76;100.00;101359.03;5005305;28;20211;-72
2022/09/02 02:02:01;;;;;;;3.57;1.47;;;;;;;9.86;100.00;101363.22;5004694;28;20199;-72
2022/09/02 02:04:28;;;;;;;2.03;1.73;;;;;;;9.88;100.00;101360.59;5016447;28;20213;-72
2022/09/02 02:06:55;;;;;;;2.20;1.90;;;;;;;9.92;100.00;101359.72;5007242;28;20295;-73
2022/09/02 02:09:23;;;;;;;2.20;1.70;;;;;;;9.78;100.00;101354.66;5000411;28;20368;-72
2022/09/02 02:11:51;;;;;;;2.10;1.90;;;;;;;9.76;100.00;101351.22;5002284;28;20222;-73
2022/09/02 02:14:19;;;;;;;2.37;1.80;;;;;;;9.71;100.00;101357.31;5017824;28;20691;-73
2022/09/02 02:16:48;;;;;;;2.20;1.57;;;;;;;9.68;100.00;101352.19;5003664;28;20669;-72
2022/09/02 02:19:15;;;;;;;1.83;1.60;;;;;;;9.85;100.00;101352.84;5005885;28;20211;-71
2022/09/02 02:21:41;;;;;;;6.13;1.80;;;;;;;9.76;100.00;101342.50;5004568;28;20215;-71
2022/09/02 02:24:09;;;;;;;1.67;1.57;;;;;;;9.79;100.00;101345.09;5004249;28;20203;-72
2022/09/02 02:26:36;;;;;;;1.70;1.60;;;;;;;9.72;100.00;101341.69;5004939;28;20240;-71
2022/09/02 02:29:04;;;;;;;2.57;1.70;;;;;;;9.72;100.00;101335.63;5003872;28;20545;-72
2022/09/02 02:31:33;;;;;;;1.67;1.57;;;;;;;9.70;100.00;101340.84;5002092;28;20207;-72
2022/09/02 02:34:00;;;;;;;1.70;1.57;;;;;;;9.75;100.00;101339.06;5003056;28;20207;-72
2022/09/02 02:36:27;;;;;;;1.73;1.57;;;;;;;9.82;100.00;101339.84;5017381;28;20230;-72
2022/09/02 02:38:54;;;;;;;1.60;1.50;;;;;;;9.82;100.00;101343.31;5002076;28;20199;-71
2022/09/02 02:41:21;;;;;;;1.77;1.67;;;;;;;9.71;100.00;101345.19;5001479;28;20256;-72
2022/09/02 02:43:47;;;;;;;2.10;1.90;;;;;;;9.66;100.00;101333.97;5003227;28;20686;-73
2022/09/02 02:46:15;;;;;;;1.67;1.57;;;;;;;9.58;100.00;101336.63;5005626;28;20217;-72
2022/09/02 02:48:43;;;;;;;2.70;1.63;;;;;;;9.56;100.00;101334.94;4999198;28;20231;-73
2022/09/02 02:51:10;;;;;;;2.17;1.67;;;;;;;9.46;100.00;101324.63;4998999;28;20202;-72
2022/09/02 02:53:37;;;;;;;1.83;1.50;;;;;;;9.44;100.00;101336.78;4997956;28;20747;-72
2022/09/02 02:56:04;;;;;;;11.43;2.30;;;;;;;9.59;100.00;101334.91;5021479;28;20351;-72
2022/09/02 02:58:31;;;;;;;2.47;1.73;;;;;;;9.48;100.00;101329.81;5002751;28;20196;-72
2022/09/02 03:00:59;;;;;;;2.37;1.83;;;;;;;9.45;100.00;101342.84;5005896;28;20850;-72
2022/09/02 03:03:26;;;;;;;1.87;1.77;;;;;;;9.50;100.00;101332.38;5003922;28;20210;-72
2022/09/02 03:05:57;;;;;;;2.07;1.80;;;;;;;9.50;100.00;101342.78;5018128;28;20226;-73
2022/09/02 03:08:26;;;;;;;2.30;1.87;;;;;;;9.46;100.00;101340.25;5017061;28;20752;-72
2022/09/02 03:10:55;;;;;;;1.87;1.70;;;;;;;9.43;100.00;101342.88;5004871;28;20203;-71
2022/09/02 03:13:25;;;;;;;3.30;1.90;;;;;;;9.54;100.00;101336.69;5006326;28;20214;-72
2022/09/02 03:15:52;;;;;;;2.70;1.70;;;;;;;9.48;100.00;101345.44;5020712;23;20659;-72
2022/09/02 03:18:21;;;;;;;2.10;1.90;;;;;;;9.54;100.00;101344.50;5012629;28;20204;-72
2022/09/02 03:20:49;;;;;;;1.80;1.67;;;;;;;9.32;100.00;101334.28;5023076;28;20243;-72
2022/09/02 03:23:17;;;;;;;4.43;2.10;;;;;;;9.28;100.00;101333.47;5010130;28;20217;-72
2022/09/02 03:25:47;;;;;;;2.20;2.00;;;;;;;9.24;100.00;101338.72;5005387;28;20344;-72
2022/09/02 03:28:22;;;;;;;2.30;2.10;;;;;;;9.28;100.00;101333.47;5000645;28;20495;-71
2022/09/02 03:30:49;;;;;;;3.47;2.23;;;;;;;9.21;100.00;101331.78;5028100;28;20217;-72
2022/09/02 03:33:17;;;;;;;2.40;1.73;;;;;;;9.21;100.00;101329.19;5012464;28;20212;-72
2022/09/02 03:35:44;;;;;;;1.70;1.60;;;;;;;9.22;100.00;101330.94;5006718;28;20246;-71
2022/09/02 03:38:12;;;;;;;1.70;1.60;;;;;;;9.24;100.00;101326.56;5013713;28;20198;-72
2022/09/02 03:40:40;;;;;;;2.07;1.80;;;;;;;9.33;100.00;101336.03;5028241;28;20201;-72
2022/09/02 03:43:07;;;;;;;2.17;1.80;;;;;;;9.37;100.00;101336.84;5012672;28;20206;-72
2022/09/02 03:45:33;;;;;;;2.20;1.83;;;;;;;9.21;100.00;101331.78;5002819;28;20226;-72
2022/09/02 03:48:04;;;;;;;2.00;1.80;;;;;;;9.30;100.00;101330.84;5009054;28;20222;-72
2022/09/02 03:50:38;;;;;;;2.30;2.10;;;;;;;9.22;100.00;101332.69;5020933;28;20681;-72
2022/09/02 03:53:06;;;;;;;2.87;2.07;;;;;;;9.25;100.00;101333.50;5022467;28;20211;-72
2022/09/02 03:55:33;;;;;;;2.60;2.20;;;;;;;9.18;100.00;101329.25;5024822;28;20276;-71
2022/09/02 03:58:02;;;;;;;2.77;1.90;;;;;;;9.10;100.00;101329.28;5015034;28;20670;-71
2022/09/02 04:00:30;;;;;;;3.20;1.73;;;;;;;9.23;100.00;101327.47;5017726;28;20275;-71
2022/09/02 04:03:00;;;;;;;1.97;1.70;;;;;;;9.10;100.00;101328.44;5030373;28;20229;-71
2022/09/02 04:05:28;;;;;;;2.97;2.10;;;;;;;9.21;100.00;101330.94;5009446;28;20352;-72
2022/09/02 04:07:56;;;;;;;3.73;2.27;;;;;;;9.01;100.00;101331.13;5009810;28;20207;-72
2022/09/02 04:10:24;;;;;;;2.73;2.10;;;;;;;8.96;100.00;101331.16;5028996;28;20792;-72
2022/09/02 04:12:51;;;;;;;1.60;1.50;;;;;;;9.12;100.00;101329.28;5011391;28;20200;-72
2022/09/02 04:15:20;;;;;;;2.17;1.87;;;;;;;9.01;100.00;101331.13;5015797;28;20235;-73
2022/09/02 04:17:49;;;;;;;2.23;2.03;;;;;;;9.00;100.00;101340.66;5014140;28;20625;-71
2022/09/02 04:20:18;;;;;;;2.00;1.77;;;;;;;8.97;100.00;101348.50;5015059;28;20649;-71
2022/09/02 04:22:45;;;;;;;2.13;1.70;;;;;;;8.94;100.00;101343.31;5019730;28;20201;-72
2022/09/02 04:25:12;;;;;;;2.43;1.80;;;;;;;8.97;100.00;101347.59;5014706;28;20243;-71
2022/09/02 04:27:39;;;;;;;2.90;1.77;;;;;;;8.88;100.00;101341.63;5007990;28;20205;-72
2022/09/02 04:30:07;;;;;;;3.10;2.43;;;;;;;8.92;100.00;101345.06;5027318;28;20222;-72
2022/09/02 04:32:37;;;;;;;2.70;1.67;;;;;;;8.89;100.00;101340.72;5010282;28;20205;-72
2022/09/02 04:35:05;;;;;;;2.40;1.90;;;;;;;9.07;100.00;101342.31;5005807;28;20206;-71
2022/09/02 04:37:33;;;;;;;1.63;1.53;;;;;;;9.01;100.00;101341.53;4997751;28;20201;-72
2022/09/02 04:40:00;;;;;;;5.63;1.70;;;;;;;8.94;100.00;101342.47;5020547;28;21727;-73
2022/09/02 04:42:26;;;;;;;4.07;2.10;;;;;;;8.94;100.00;101343.31;5006626;28;20331;-73
2022/09/02 04:44:56;;;;;;;1.83;1.70;;;;;;;8.97;100.00;101345.91;5006063;28;20606;-73
2022/09/02 04:47:23;;;;;;;1.63;1.53;;;;;;;9.04;100.00;101344.97;5022693;28;20242;-71
2022/09/02 04:49:52;;;;;;;2.10;1.90;;;;;;;9.06;100.00;101342.34;5006310;28;20223;-73
2022/09/02 04:52:19;;;;;;;3.07;2.03;;;;;;;9.19;100.00;101345.69;5004652;28;20232;-72
2022/09/02 04:54:47;;;;;;;2.17;1.97;;;;;;;9.27;100.00;101346.50;5019291;28;20202;-72
2022/09/02 04:57:13;;;;;;;2.10;1.63;;;;;;;9.08;100.00;101345.81;5023353;28;20232;-72
2022/09/02 04:59:40;;;;;;;5.10;2.10;;;;;;;9.15;100.00;101344.88;5020014;28;20410;-72
2022/09/02 05:02:10;;;;;;;2.67;2.17;;;;;;;9.28;100.00;101350.81;5016513;28;20679;-72
2022/09/02 05:04:37;;;;;;;2.30;2.10;;;;;;;9.34;100.00;101349.88;5005021;28;20236;-72
2022/09/02 05:07:10;;;;;;;2.57;2.20;;;;;;;9.32;100.00;101351.66;4999852;28;20493;-73
2022/09/02 05:09:42;;;;;;;2.77;2.20;;;;;;;9.44;100.00;101360.19;5002903;28;20218;-72
2022/09/02 05:12:10;;;;;;;2.30;2.10;;;;;;;9.45;100.00;101358.47;5004958;28;20688;-73
2022/09/02 05:14:42;;;;;;;1.93;1.77;;;;;;;9.49;100.00;101360.16;5004398;28;20197;-72
2022/09/02 05:17:09;;;;;;;3.50;2.93;;;;;;;9.57;100.00;101350.53;5007359;28;20276;-71
2022/09/02 05:19:39;;;;;;;2.37;2.17;;;;;;;9.73;100.00;101351.25;5008613;28;20197;-72
2022/09/02 05:22:06;;;;;;;4.60;2.70;;;;;;;9.56;100.00;101355.75;5006881;28;20214;-72
2022/09/02 05:24:38;;;;;;;4.10;2.60;;;;;;;9.60;100.00;101355.72;5006303;28;20670;-72
2022/09/02 05:27:07;;;;;;;3.97;3.13;;;;;;;9.51;100.00;101352.34;5004363;28;20735;-72
2022/09/02 05:29:35;;;;;;;5.70;3.67;;;;;;;9.51;100.00;101355.78;5021241;28;20222;-71
2022/09/02 05:32:03;;;;;;;6.90;3.70;;;;;;;9.52;100.00;101349.72;5021657;28;20258;-72
2022/09/02 05:34:32;;;;;;;5.30;4.00;;;;;;;9.68;100.00;101352.19;4998868;28;20199;-72
2022/09/02 05:37:00;;;;;;;7.43;4.00;;;;;;;9.73;100.00;101348.63;5006472;28;20277;-72
2022/09/02 05:39:30;;;;;;;5.50;4.07;;;;;;;10.15;100.00;101354.22;5003910;28;20250;-72
2022/09/02 05:41:58;;;;;;;5.40;4.40;;;;;;;10.09;100.00;101345.59;5006622;28;20301;-73
2022/09/02 05:44:25;;;;;;;5.73;4.43;;;;;;;10.03;100.00;101343.94;5017469;28;20302;-72
2022/09/02 05:46:52;;;;;;;5.87;4.30;;;;;;;10.13;100.00;101347.28;5008109;28;20313;-73
2022/09/02 05:49:20;;;;;;;5.77;4.30;;;;;;;10.29;100.00;101347.94;5005104;28;20696;-73
2022/09/02 05:51:54;;;;;;;4.37;3.87;;;;;;;10.36;100.00;101342.69;5007488;28;20235;-72
2022/09/02 05:54:28;;;;;;;6.60;4.67;;;;;;;10.50;100.00;101349.44;5007936;28;20200;-72
2022/09/02 05:57:00;;;;;;;7.77;4.60;;;;;;;10.58;100.00;101342.38;5024428;28;20223;-72
2022/09/02 05:59:28;;;;;;;5.17;3.97;;;;;;;10.70;100.00;101346.53;5021763;28;20657;-72
2022/09/02 06:01:58;;;;;;;6.53;4.60;;;;;;;10.78;100.00;101349.88;5006555;28;20295;-71
2022/09/02 06:04:25;;;;;;;4.60;4.13;;;;;;;10.90;100.00;101346.22;5008276;28;20204;-73
2022/09/02 06:06:52;;;;;;;6.93;4.27;;;;;;;10.98;100.00;101354.81;5018586;28;20220;-72
2022/09/02 06:09:21;;;;;;;6.63;4.50;;;;;;;11.10;100.00;101352.00;5025761;28;21158;-73
2022/09/02 06:11:50;;;;;;;5.57;4.80;;;;;;;11.18;100.00;101349.22;5012408;28;20282;-73
2022/09/02 06:14:24;;;;;;;9.00;4.77;;;;;;;11.29;100.00;101354.25;5010637;28;20591;-73
2022/09/02 06:16:53;;;;;;;6.17;4.53;;;;;;;11.37;100.00;101350.63;5011866;28;20828;-73
2022/09/02 06:19:29;;;;;;;5.50;4.40;;;;;;;11.45;100.00;101347.03;5011069;28;20759;-72
2022/09/02 06:21:57;;;;;;;8.00;4.63;;;;;;;11.53;100.00;101338.16;5008158;28;20584;-72
2022/09/02 06:24:26;;;;;;;6.57;4.67;;;;;;;11.67;100.00;101347.50;5014209;28;20474;-72
2022/09/02 06:26:53;;;;;;;5.07;3.93;;;;;;;11.75;100.00;101349.06;5026249;28;20227;-72
2022/09/02 06:29:23;;;;;;;5.60;3.57;;;;;;;11.89;100.00;101347.91;5007432;28;20222;-72
2022/09/02 06:31:50;;;;;;;6.63;3.67;;;;;;;12.01;100.00;101354.69;5007480;28;20206;-71
2022/09/02 06:34:19;;;;;;;5.53;3.30;;;;;;;12.09;100.00;101342.34;5013118;28;20207;-72
2022/09/02 06:36:49;;;;;;;5.17;3.57;;;;;;;12.17;100.00;101352.63;5006210;28;20224;-72
2022/09/02 06:39:19;;;;;;;4.97;3.27;;;;;;;12.27;100.00;101348.91;5009582;28;20208;-72
2022/09/02 06:41:47;;;;;;;4.97;3.40;;;;;;;12.39;100.00;101353.03;5009394;28;20205;-71
2022/09/02 06:44:16;;;;;;;5.77;3.10;;;;;;;12.47;100.00;101356.31;5008140;28;20220;-71
2022/09/02 06:46:47;;;;;;;6.93;3.03;;;;;;;12.52;100.00;101356.22;5021193;28;20641;-72
2022/09/02 06:49:15;;;;;;;5.47;2.73;;;;;;;12.63;100.00;101352.47;5013530;28;20212;-72
2022/09/02 06:51:47;;;;;;;3.30;2.47;;;;;;;12.67;100.00;101359.34;5024602;28;20586;-71
2022/09/02 06:54:16;;;;;;;3.67;2.90;;;;;;;12.75;100.00;101364.41;5028184;28;20593;-71
2022/09/02 06:56:45;;;;;;;3.53;2.57;;;;;;;12.85;100.00;101360.66;5010037;28;20429;-71
2022/09/02 06:59:12;;;;;;;3.63;2.67;;;;;;;12.96;100.00;101360.41;5032362;28;20282;-72
2022/09/02 07:01:47;;;;;;;3.07;2.50;;;;;;;13.04;100.00;101366.31;5013410;28;20688;-72
2022/09/02 07:07:05;;;;;;;15.20;9.83;;;;;;;13.27;100.00;101372.75;5011878;28;20216;-72
2022/09/02 07:09:35;;;;;;;4.97;3.47;;;;;;;13.37;100.00;101373.41;5025679;28;20640;-72
2022/09/02 07:12:11;;;;;;;3.83;2.70;;;;;;;13.48;100.00;101368.75;5015516;28;20215;-72
2022/09/02 07:14:45;;;;;;;2.57;2.10;;;;;;;13.68;100.00;101376.06;5011830;28;20214;-71
2022/09/02 07:17:16;;;;;;;3.23;2.40;;;;;;;13.73;100.00;101373.31;5025317;28;20223;-72
2022/09/02 07:19:43;;;;;;;2.67;2.40;;;;;;;13.83;100.00;101375.63;5010173;28;20222;-72
2022/09/02 07:22:10;;;;;;;3.00;2.50;;;;;;;13.95;100.00;101379.69;5010104;28;20684;-71
2022/09/02 07:24:43;;;;;;;4.03;2.40;;;;;;;14.07;100.00;101374.97;5022084;28;20740;-72
2022/09/02 07:27:11;;;;;;;4.20;2.40;;;;;;;14.16;100.00;101377.38;5008828;28;20223;-71
2022/09/02 07:29:40;;;;;;;3.87;2.70;;;;;;;14.27;100.00;101372.66;5013092;28;20254;-72
2022/09/02 07:32:06;;;;;;;2.73;2.30;;;;;;;14.37;100.00;101374.09;5000729;28;20211;-72
2022/09/02 07:34:35;;;;;;;2.33;2.10;;;;;;;14.44;100.00;101371.28;5025078;28;20192;-72
2022/09/02 07:37:01;;;;;;;2.53;2.07;;;;;;;14.56;100.00;101377.03;5023957;28;20717;-72
2022/09/02 07:39:27;;;;;;;3.50;2.50;;;;;;;14.70;100.00;101381.00;5026826;28;20293;-73
2022/09/02 07:41:54;;;;;;;2.20;2.00;;;;;;;14.84;100.00;101380.56;5010705;28;20804;-72
2022/09/02 07:44:23;;;;;;;2.50;1.83;;;;;;;14.98;100.00;101382.75;5007070;28;20196;-71
2022/09/02 07:46:52;;;;;;;5.47;2.27;;;;;;;15.04;100.00;101388.69;5008465;28;20280;-72
2022/09/02 07:49:20;;;;;;;5.30;2.30;;;;;;;15.10;100.00;101387.59;5014363;28;20210;-73
2022/09/02 07:51:50;;;;;;;2.33;1.90;;;;;;;15.16;100.00;101387.38;5022809;28;20282;-72
2022/09/02 07:54:22;;;;;;;4.53;3.73;;;;;;;15.26;100.00;101391.44;5009238;28;20527;-73
2022/09/02 07:56:50;;;;;;;2.97;2.67;;;;;;;15.39;100.00;101388.38;5007993;28;20222;-73
2022/09/02 07:59:20;;;;;;;4.03;2.30;;;;;;;15.55;100.00;101384.34;5011607;28;20275;-72
2022/09/02 08:01:47;;;;;;;3.10;2.03;;;;;;;15.66;100.00;101386.59;5009982;28;20327;-73
2022/09/02 08:04:15;;;;;;;2.67;2.10;;;;;;;15.75;100.00;101386.28;5031626;28;20203;-73
2022/09/02 08:06:42;;;;;;;2.00;1.70;;;;;;;15.81;100.00;101393.97;5021307;28;20220;-73
2022/09/02 08:09:11;;;;;;;2.23;1.97;;;;;;;15.86;100.00;101378.00;5025726;28;20577;-73
2022/09/02 08:11:38;;;;;;;4.93;2.03;;;;;;;15.92;100.00;101387.44;5025714;28;20410;-72
2022/09/02 08:14:05;;;;;;;2.37;1.90;;;;;;;16.02;100.00;101384.44;5022568;28;20208;-73
2022/09/02 08:16:31;;;;;;;3.93;2.10;;;;;;;16.07;100.00;101379.00;5021263;28;20825;-73
2022/09/02 08:18:58;;;;;;;3.33;2.23;;;;;;;16.21;100.00;101387.22;5019709;28;20205;-73
2022/09/02 08:21:25;;;;;;;2.00;1.70;;;;;;;16.38;100.00;101383.97;5023363;28;20234;-72
2022/09/02 08:23:51;;;;;;;1.83;1.50;;;;;;;16.45;100.00;101384.59;5023934;28;20559;-73
2022/09/02 08:26:20;;;;;;;3.20;1.50;;;;;;;16.55;100.00;101395.59;5017751;28;20286;-71
2022/09/02 08:28:46;;;;;;;3.13;1.70;;;;;;;16.63;100.00;101399.66;5029602;28;20215;-72
2022/09/02 08:31:13;;;;;;;3.10;1.53;;;;;;;16.74;100.00;101403.66;5029431;28;20302;-73
2022/09/02 08:33:39;;;;;;;3.20;1.47;;;;;;;16.79;100.00;101392.00;5028139;28;20200;-73
2022/09/02 08:36:08;;;;;;;1.60;1.50;;;;;;;16.94;100.00;101393.22;5023438;28;20224;-73
2022/09/02 08:38:34;;;;;;;1.97;1.50;;;;;;;17.00;100.00;101400.84;5022238;28;20718;-72
2022/09/02 08:41:01;;;;;;;2.33;1.60;;;;;;;17.17;100.00;101397.53;5024641;28;20690;-73
2022/09/02 08:43:37;;;;;;;1.80;1.20;;;;;;;17.30;100.00;101399.66;5021285;28;20199;-73
2022/09/02 08:46:05;;;;;;;1.60;1.17;;;;;;;17.34;100.00;101407.38;5023034;28;20224;-73
2022/09/02 08:48:38;;;;;;;1.60;1.37;;;;;;;17.46;100.00;101398.06;5026642;28;20603;-73
2022/09/02 08:51:09;;;;;;;2.67;1.20;;;;;;;17.59;100.00;101401.06;5023368;28;20216;-73
2022/09/02 08:53:45;;;;;;;1.50;1.07;;;;;;;17.60;100.00;101400.13;5031003;28;20205;-72
2022/09/02 08:56:15;;;;;;;1.53;1.10;;;;;;;17.65;96.22;101402.56;5023378;28;20227;-72
2022/09/02 08:58:46;;;;;;;1.10;1.00;;;;;;;17.87;95.96;101403.38;5027619;28;20210;-72
2022/09/02 09:01:23;;;;;;;4.90;1.70;;;;;;;17.81;100.00;101393.06;5022396;28;20282;-73
2022/09/02 09:04:06;;;;;;;2.47;1.73;;;;;;;17.82;100.00;101378.06;5027132;28;20538;-71
2022/09/02 09:06:49;;;;;;;2.33;1.40;;;;;;;17.91;99.34;101389.13;5023706;28;20215;-72
2022/09/02 09:09:26;;;;;;;2.67;1.77;;;;;;;18.02;98.39;101388.63;5026111;28;20264;-72
2022/09/02 09:12:01;;;;;;;2.70;1.57;;;;;;;18.12;99.85;101381.16;5022025;28;20219;-73
2022/09/02 09:14:35;;;;;;;2.70;1.60;;;;;;;18.16;97.46;101377.44;5026965;28;20574;-72
2022/09/02 09:17:09;;;;;;;2.63;1.20;;;;;;;18.22;93.99;101385.06;5036053;23;20242;-73
2022/09/02 09:19:45;;;;;;;1.50;1.10;;;;;;;18.17;91.36;101373.91;5023895;28;20200;-72
2022/09/02 09:22:14;;;;;;;1.60;1.10;;;;;;;18.24;89.93;101375.31;5025240;28;20712;-72
2022/09/02 09:24:44;;;;;;;1.33;1.07;;;;;;;18.19;85.61;101374.69;5026211;28;20204;-72
2022/09/02 09:27:13;;;;;;;1.23;1.00;;;;;;;18.25;86.62;101365.63;5026199;28;20317;-71
2022/09/02 09:29:41;;;;;;;1.17;1.00;;;;;;;18.46;87.95;101361.97;5024466;28;20802;-71
2022/09/02 09:32:17;;;;;;;2.93;1.10;;;;;;;18.49;86.30;101366.25;5027144;28;20226;-72
2022/09/02 09:35:06;;;;;;;1.13;1.03;;;;;;;18.57;87.25;101361.44;5024824;28;20835;-72
2022/09/02 09:37:36;;;;;;;1.33;1.03;;;;;;;18.74;85.56;101364.13;5025325;28;20227;-72
2022/09/02 09:40:22;;;;;;;1.13;0.83;;;;;;;18.80;80.48;101360.31;5026989;28;20204;-72
2022/09/02 09:42:54;;;;;;;1.17;1.07;;;;;;;18.96;87.08;101362.25;5025932;28;20200;-72
2022/09/02 09:45:32;;;;;;;1.20;1.00;;;;;;;19.04;81.88;101362.72;5025902;28;20199;-72
2022/09/02 09:48:22;;;;;;;2.70;1.10;;;;;;;19.23;79.94;101358.22;5018019;28;20278;-72
2022/09/02 09:51:09;;;;;;;1.40;1.00;;;;;;;19.28;82.81;101358.00;5008309;28;20303;-72
2022/09/02 09:53:37;;;;;;;2.50;1.20;;;;;;;19.23;79.35;101350.28;5021325;28;20200;-72
2022/09/02 09:56:06;;;;;;;1.47;1.17;;;;;;;19.05;78.59;101351.22;5008145;28;20841;-73
2022/09/02 09:58:35;;;;;;;0.87;0.87;;;;;;;19.17;80.03;101333.88;5024348;28;20553;-72
2022/09/02 10:01:12;;;;;;;1.10;1.00;;;;;;;19.28;79.75;101339.50;5025844;28;20283;-72
2022/09/02 10:03:42;;;;;;;1.63;1.20;;;;;;;19.59;76.70;101346.66;5025001;28;20191;-73
2022/09/02 10:06:19;;;;;;;1.87;1.30;;;;;;;19.66;77.55;101340.16;5024783;28;20224;-72
2022/09/02 10:08:51;;;;;;;1.87;1.40;;;;;;;19.74;75.92;101341.56;5023218;28;20207;-73
2022/09/02 10:11:22;;;;;;;0.90;0.90;;;;;;;19.90;76.04;101334.50;5022759;28;20634;-72
2022/09/02 10:13:48;;;;;;;2.47;1.30;;;;;;;19.74;73.57;101339.75;5023328;28;20200;-73
2022/09/02 10:16:28;;;;;;;2.87;1.13;;;;;;;19.25;73.76;101337.00;5026344;28;20242;-72
2022/09/02 10:18:59;;;;;;;1.60;1.33;;;;;;;19.08;74.94;101333.44;5029091;28;20208;-72
2022/09/02 10:21:38;;;;;;;2.67;1.27;;;;;;;18.88;76.46;101323.84;5025667;28;20204;-72
2022/09/02 10:24:17;;;;;;;1.20;1.03;;;;;;;19.03;80.68;101321.38;5030150;28;20204;-73
2022/09/02 10:26:49;;;;;;;4.00;1.10;;;;;;;19.19;75.26;101330.25;5026210;28;20224;-73
2022/09/02 10:29:44;;;;;;;1.03;0.93;;;;;;;18.98;75.21;101324.25;5031918;28;20207;-72
2022/09/02 10:32:45;;;;;;;1.30;1.10;;;;;;;18.90;77.41;101331.72;5029410;28;20227;-72
2022/09/02 10:35:21;;;;;;;1.77;0.90;;;;;;;18.89;76.55;101333.50;5026586;28;20612;-73
2022/09/02 10:38:04;;;;;;;1.33;0.90;;;;;;;18.88;75.34;101326.50;5029164;28;20199;-73
2022/09/02 10:40:37;;;;;;;1.10;0.80;;;;;;;19.03;76.78;101321.38;5029379;28;20203;-72
2022/09/02 10:43:06;;;;;;;0.80;0.80;;;;;;;19.32;77.12;101321.69;5024373;28;20214;-73
2022/09/02 10:45:36;;;;;;;1.20;1.00;;;;;;;19.63;72.35;101311.19;5025821;28;20203;-71
2022/09/02 10:48:15;;;;;;;1.90;0.80;;;;;;;19.90;71.94;101320.41;5027517;28;20199;-73
2022/09/02 10:50:48;;;;;;;1.43;0.80;;;;;;;20.09;70.51;101321.13;5026768;28;20219;-73
2022/09/02 10:53:29;;;;;;;1.07;0.80;;;;;;;19.94;69.51;101316.66;5027212;28;20235;-72
2022/09/02 10:55:59;;;;;;;1.50;0.93;;;;;;;19.70;72.22;101313.50;5025025;28;20222;-70
2022/09/02 10:58:38;;;;;;;1.57;0.97;;;;;;;19.67;69.74;101314.53;5028930;28;20206;-70
2022/09/02 11:01:07;;;;;;;0.80;0.80;;;;;;;19.83;69.75;101314.59;5028909;28;20196;-72
2022/09/02 11:03:41;;;;;;;1.73;1.10;;;;;;;19.78;68.03;101314.84;5029978;28;20759;-72
2022/09/02 11:06:13;;;;;;;1.10;1.00;;;;;;;19.62;67.50;101314.78;5025294;28;20242;-71
2022/09/02 11:08:43;;;;;;;0.60;0.60;;;;;;;19.54;69.04;101308.19;5030957;28;20195;-73
2022/09/02 11:11:20;;;;;;;1.57;0.90;;;;;;;19.78;66.58;101306.91;5026444;28;20212;-72
2022/09/02 11:14:00;;;;;;;0.93;0.80;;;;;;;20.30;68.65;101304.97;5026056;28;20293;-72
2022/09/02 11:16:33;;;;;;;0.60;0.60;;;;;;;20.73;69.46;101315.78;5023477;28;20652;-71
2022/09/02 11:19:06;;;;;;;1.23;0.80;;;;;;;20.85;67.05;101319.53;5025036;28;20211;-72
2022/09/02 11:21:47;;;;;;;1.20;0.80;;;;;;;20.72;67.46;101317.59;5024470;28;20585;-71
2022/09/02 11:24:21;;;;;;;0.80;0.80;;;;;;;20.77;68.53;101306.72;5023301;28;20203;-72
2022/09/02 11:26:56;;;;;;;0.67;0.67;;;;;;;20.55;66.00;101309.75;5024134;28;20219;-73
2022/09/02 11:29:33;;;;;;;1.80;0.80;;;;;;;20.42;66.27;101301.63;5025071;28;20257;-72
2022/09/02 11:32:07;;;;;;;1.33;0.90;;;;;;;20.40;68.22;101300.84;5022996;28;20231;-71
2022/09/02 11:34:39;;;;;;;0.80;0.80;;;;;;;20.53;67.67;101298.38;5016699;28;21007;-72
2022/09/02 11:37:09;;;;;;;0.88;0.80;;;;;;;20.37;65.03;101293.94;5020589;28;20231;-73